sensor_id;sensor_type;location;lat;lon;timestamp;P1;durP1;ratioP1;P2;durP2;ratioP2
37477;SDS011;23334;54.316;10.182;2022-12-29T00:01:27;3.50;;;3.30;;
37477;SDS011;23334;54.316;10.182;2022-12-29T00:03:52;3.63;;;3.37;;
37477;SDS011;23334;54.316;10.182;2022-12-29T00:06:18;7.03;;;3.53;;
37477;SDS011;23334;54.316;10.182;2022-12-29T00:08:43;3.87;;;3.50;;
37477;SDS011;23334;54.316;10.182;2022-12-29T00:11:11;4.53;;;4.13;;
37477;SDS011;23334;54.316;10.182;2022-12-29T00:13:38;4.70;;;4.30;;
37477;SDS011;23334;54.316;10.182;2022-12-29T00:16:22;5.40;;;4.90;;
37477;SDS011;23334;54.316;10.182;2022-12-29T00:18:48;4.97;;;4.57;;
37477;SDS011;23334;54.316;10.182;2022-12-29T00:21:14;5.00;;;4.70;;
37477;SDS011;23334;54.316;10.182;2022-12-29T00:24:00;6.57;;;5.10;;
37477;SDS011;23334;54.316;10.182;2022-12-29T00:26:45;6.90;;;5.10;;
37477;SDS011;23334;54.316;10.182;2022-12-29T00:29:32;5.13;;;4.73;;
37477;SDS011;23334;54.316;10.182;2022-12-29T00:32:16;6.30;;;4.80;;
37477;SDS011;23334;54.316;10.182;2022-12-29T00:35:01;6.43;;;5.73;;
37477;SDS011;23334;54.316;10.182;2022-12-29T00:37:38;7.37;;;5.40;;
37477;SDS011;23334;54.316;10.182;2022-12-29T00:40:46;5.60;;;5.20;;
37477;SDS011;23334;54.316;10.182;2022-12-29T00:43:30;6.93;;;5.67;;
37477;SDS011;23334;54.316;10.182;2022-12-29T00:46:27;6.20;;;5.67;;
37477;SDS011;23334;54.316;10.182;2022-12-29T00:48:53;6.27;;;5.67;;
37477;SDS011;23334;54.316;10.182;2022-12-29T00:51:37;6.60;;;5.63;;
37477;SDS011;23334;54.316;10.182;2022-12-29T00:54:02;6.20;;;5.60;;
37477;SDS011;23334;54.316;10.182;2022-12-29T00:56:28;6.90;;;6.00;;
37477;SDS011;23334;54.316;10.182;2022-12-29T00:58:53;8.40;;;6.40;;
37477;SDS011;23334;54.316;10.182;2022-12-29T01:01:19;5.70;;;5.30;;
37477;SDS011;23334;54.316;10.182;2022-12-29T01:03:44;6.67;;;5.90;;
37477;SDS011;23334;54.316;10.182;2022-12-29T01:06:10;7.97;;;6.00;;
37477;SDS011;23334;54.316;10.182;2022-12-29T01:08:36;6.87;;;6.20;;
37477;SDS011;23334;54.316;10.182;2022-12-29T01:11:06;10.07;;;6.87;;
37477;SDS011;23334;54.316;10.182;2022-12-29T01:13:33;7.60;;;6.63;;
37477;SDS011;23334;54.316;10.182;2022-12-29T01:15:59;9.20;;;6.73;;
37477;SDS011;23334;54.316;10.182;2022-12-29T01:18:26;7.47;;;6.77;;
37477;SDS011;23334;54.316;10.182;2022-12-29T01:21:02;7.27;;;6.60;;
37477;SDS011;23334;54.316;10.182;2022-12-29T01:23:30;8.67;;;7.77;;
37477;SDS011;23334;54.316;10.182;2022-12-29T01:25:56;10.93;;;7.20;;
37477;SDS011;23334;54.316;10.182;2022-12-29T01:28:22;9.20;;;7.63;;
37477;SDS011;23334;54.316;10.182;2022-12-29T01:30:48;8.70;;;7.80;;
37477;SDS011;23334;54.316;10.182;2022-12-29T01:33:14;10.00;;;7.73;;
37477;SDS011;23334;54.316;10.182;2022-12-29T01:35:40;8.60;;;7.80;;
37477;SDS011;23334;54.316;10.182;2022-12-29T01:38:05;9.47;;;7.50;;
37477;SDS011;23334;54.316;10.182;2022-12-29T01:40:31;8.83;;;7.23;;
37477;SDS011;23334;54.316;10.182;2022-12-29T01:42:57;7.87;;;7.10;;
37477;SDS011;23334;54.316;10.182;2022-12-29T01:45:23;9.00;;;8.10;;
37477;SDS011;23334;54.316;10.182;2022-12-29T01:47:50;8.17;;;7.37;;
37477;SDS011;23334;54.316;10.182;2022-12-29T01:53:18;15.60;;;7.60;;
37477;SDS011;23334;54.316;10.182;2022-12-29T01:55:50;9.17;;;7.80;;
37477;SDS011;23334;54.316;10.182;2022-12-29T01:58:19;8.70;;;7.27;;
37477;SDS011;23334;54.316;10.182;2022-12-29T02:00:46;8.00;;;7.20;;
37477;SDS011;23334;54.316;10.182;2022-12-29T02:03:12;8.30;;;6.83;;
37477;SDS011;23334;54.316;10.182;2022-12-29T02:08:06;9.10;;;7.33;;
37477;SDS011;23334;54.316;10.182;2022-12-29T02:10:34;8.03;;;7.30;;
37477;SDS011;23334;54.316;10.182;2022-12-29T02:13:00;9.60;;;7.57;;
37477;SDS011;23334;54.316;10.182;2022-12-29T02:26:57;8.43;;;7.10;;
37477;SDS011;23334;54.316;10.182;2022-12-29T02:29:51;8.43;;;7.27;;
37477;SDS011;23334;54.316;10.182;2022-12-29T02:38:25;9.30;;;7.67;;
37477;SDS011;23334;54.316;10.182;2022-12-29T02:41:16;8.60;;;6.80;;
37477;SDS011;23334;54.316;10.182;2022-12-29T02:47:04;8.70;;;7.80;;
37477;SDS011;23334;54.316;10.182;2022-12-29T02:52:38;8.23;;;7.43;;
37477;SDS011;23334;54.316;10.182;2022-12-29T02:55:11;7.30;;;6.60;;
37477;SDS011;23334;54.316;10.182;2022-12-29T02:57:37;7.07;;;6.40;;
37477;SDS011;23334;54.316;10.182;2022-12-29T03:00:04;8.67;;;7.87;;
37477;SDS011;23334;54.316;10.182;2022-12-29T03:08:28;8.00;;;7.20;;
37477;SDS011;23334;54.316;10.182;2022-12-29T03:13:36;7.10;;;6.40;;
37477;SDS011;23334;54.316;10.182;2022-12-29T03:19:07;7.03;;;6.33;;
37477;SDS011;23334;54.316;10.182;2022-12-29T03:21:43;8.60;;;7.17;;
37477;SDS011;23334;54.316;10.182;2022-12-29T03:24:32;10.83;;;7.00;;
37477;SDS011;23334;54.316;10.182;2022-12-29T03:27:02;7.27;;;6.57;;
37477;SDS011;23334;54.316;10.182;2022-12-29T03:29:32;8.00;;;7.20;;
37477;SDS011;23334;54.316;10.182;2022-12-29T03:32:05;8.00;;;7.20;;
37477;SDS011;23334;54.316;10.182;2022-12-29T03:34:33;8.43;;;6.83;;
37477;SDS011;23334;54.316;10.182;2022-12-29T03:37:02;8.70;;;7.80;;
37477;SDS011;23334;54.316;10.182;2022-12-29T03:39:34;8.00;;;7.20;;
37477;SDS011;23334;54.316;10.182;2022-12-29T03:42:09;7.33;;;6.57;;
37477;SDS011;23334;54.316;10.182;2022-12-29T03:44:40;14.03;;;7.63;;
37477;SDS011;23334;54.316;10.182;2022-12-29T03:47:07;8.03;;;7.20;;
37477;SDS011;23334;54.316;10.182;2022-12-29T03:49:35;8.00;;;7.20;;
37477;SDS011;23334;54.316;10.182;2022-12-29T03:52:00;9.60;;;7.90;;
37477;SDS011;23334;54.316;10.182;2022-12-29T03:54:26;8.50;;;7.70;;
37477;SDS011;23334;54.316;10.182;2022-12-29T03:56:51;9.27;;;7.80;;
37477;SDS011;23334;54.316;10.182;2022-12-29T03:59:17;8.03;;;7.23;;
37477;SDS011;23334;54.316;10.182;2022-12-29T04:01:42;10.10;;;6.93;;
37477;SDS011;23334;54.316;10.182;2022-12-29T04:04:08;7.60;;;6.90;;
37477;SDS011;23334;54.316;10.182;2022-12-29T04:06:33;7.80;;;7.00;;
37477;SDS011;23334;54.316;10.182;2022-12-29T04:08:59;7.47;;;6.70;;
37477;SDS011;23334;54.316;10.182;2022-12-29T04:11:25;7.03;;;6.33;;
37477;SDS011;23334;54.316;10.182;2022-12-29T04:13:50;8.10;;;7.30;;
37477;SDS011;23334;54.316;10.182;2022-12-29T04:16:16;6.50;;;5.90;;
37477;SDS011;23334;54.316;10.182;2022-12-29T04:18:41;6.70;;;6.03;;
37477;SDS011;23334;54.316;10.182;2022-12-29T04:21:07;7.17;;;6.50;;
37477;SDS011;23334;54.316;10.182;2022-12-29T04:23:34;8.03;;;6.53;;
37477;SDS011;23334;54.316;10.182;2022-12-29T04:26:04;9.33;;;6.87;;
37477;SDS011;23334;54.316;10.182;2022-12-29T04:28:34;6.50;;;5.90;;
37477;SDS011;23334;54.316;10.182;2022-12-29T04:31:02;7.60;;;6.37;;
37477;SDS011;23334;54.316;10.182;2022-12-29T04:33:28;7.03;;;6.40;;
37477;SDS011;23334;54.316;10.182;2022-12-29T04:35:55;6.87;;;6.27;;
37477;SDS011;23334;54.316;10.182;2022-12-29T04:38:21;6.80;;;6.17;;
37477;SDS011;23334;54.316;10.182;2022-12-29T04:40:47;6.17;;;5.77;;
37477;SDS011;23334;54.316;10.182;2022-12-29T04:43:14;5.90;;;5.50;;
37477;SDS011;23334;54.316;10.182;2022-12-29T04:45:43;6.50;;;5.67;;
37477;SDS011;23334;54.316;10.182;2022-12-29T04:48:09;9.87;;;6.40;;
37477;SDS011;23334;54.316;10.182;2022-12-29T04:50:35;6.00;;;5.50;;
37477;SDS011;23334;54.316;10.182;2022-12-29T04:53:01;5.87;;;5.17;;
37477;SDS011;23334;54.316;10.182;2022-12-29T04:55:26;5.40;;;4.90;;
37477;SDS011;23334;54.316;10.182;2022-12-29T04:57:52;6.20;;;5.53;;
37477;SDS011;23334;54.316;10.182;2022-12-29T05:00:18;5.90;;;5.40;;
37477;SDS011;23334;54.316;10.182;2022-12-29T05:02:44;6.17;;;5.67;;
37477;SDS011;23334;54.316;10.182;2022-12-29T05:05:10;5.13;;;4.63;;
37477;SDS011;23334;54.316;10.182;2022-12-29T05:07:35;5.70;;;5.30;;
37477;SDS011;23334;54.316;10.182;2022-12-29T05:10:01;5.53;;;5.13;;
37477;SDS011;23334;54.316;10.182;2022-12-29T05:12:31;5.97;;;5.47;;
37477;SDS011;23334;54.316;10.182;2022-12-29T05:14:57;6.30;;;5.70;;
37477;SDS011;23334;54.316;10.182;2022-12-29T05:17:23;6.00;;;5.40;;
37477;SDS011;23334;54.316;10.182;2022-12-29T05:19:49;5.27;;;4.87;;
37477;SDS011;23334;54.316;10.182;2022-12-29T05:22:14;5.43;;;4.90;;
37477;SDS011;23334;54.316;10.182;2022-12-29T05:24:40;11.57;;;5.43;;
37477;SDS011;23334;54.316;10.182;2022-12-29T05:27:06;4.97;;;4.57;;
37477;SDS011;23334;54.316;10.182;2022-12-29T05:29:31;11.03;;;4.63;;
37477;SDS011;23334;54.316;10.182;2022-12-29T05:31:57;5.20;;;4.80;;
37477;SDS011;23334;54.316;10.182;2022-12-29T05:34:22;5.33;;;4.93;;
37477;SDS011;23334;54.316;10.182;2022-12-29T05:36:48;5.50;;;5.00;;
37477;SDS011;23334;54.316;10.182;2022-12-29T05:39:13;5.40;;;5.00;;
37477;SDS011;23334;54.316;10.182;2022-12-29T05:41:39;5.40;;;4.60;;
37477;SDS011;23334;54.316;10.182;2022-12-29T05:44:04;5.40;;;5.00;;
37477;SDS011;23334;54.316;10.182;2022-12-29T05:46:30;5.20;;;4.80;;
37477;SDS011;23334;54.316;10.182;2022-12-29T05:48:55;5.20;;;4.70;;
37477;SDS011;23334;54.316;10.182;2022-12-29T05:51:21;4.40;;;4.10;;
37477;SDS011;23334;54.316;10.182;2022-12-29T05:53:47;5.00;;;4.43;;
37477;SDS011;23334;54.316;10.182;2022-12-29T05:56:12;4.60;;;4.30;;
37477;SDS011;23334;54.316;10.182;2022-12-29T05:58:38;4.20;;;3.83;;
37477;SDS011;23334;54.316;10.182;2022-12-29T06:01:04;3.77;;;3.57;;
37477;SDS011;23334;54.316;10.182;2022-12-29T06:03:30;3.80;;;3.50;;
37477;SDS011;23334;54.316;10.182;2022-12-29T06:05:55;3.90;;;3.20;;
37477;SDS011;23334;54.316;10.182;2022-12-29T06:08:21;3.50;;;3.30;;
37477;SDS011;23334;54.316;10.182;2022-12-29T06:10:46;3.57;;;3.37;;
37477;SDS011;23334;54.316;10.182;2022-12-29T06:13:12;3.30;;;3.20;;
37477;SDS011;23334;54.316;10.182;2022-12-29T06:15:38;3.13;;;2.80;;
37477;SDS011;23334;54.316;10.182;2022-12-29T06:18:03;2.93;;;2.73;;
37477;SDS011;23334;54.316;10.182;2022-12-29T06:20:29;3.20;;;3.00;;
37477;SDS011;23334;54.316;10.182;2022-12-29T06:22:55;2.83;;;2.63;;
37477;SDS011;23334;54.316;10.182;2022-12-29T06:25:20;2.80;;;2.60;;
37477;SDS011;23334;54.316;10.182;2022-12-29T06:27:46;3.10;;;3.00;;
37477;SDS011;23334;54.316;10.182;2022-12-29T06:30:11;2.90;;;2.80;;
37477;SDS011;23334;54.316;10.182;2022-12-29T06:32:37;2.70;;;2.50;;
37477;SDS011;23334;54.316;10.182;2022-12-29T06:35:04;2.33;;;2.23;;
37477;SDS011;23334;54.316;10.182;2022-12-29T06:37:31;2.70;;;2.60;;
37477;SDS011;23334;54.316;10.182;2022-12-29T06:39:56;2.50;;;2.40;;
37477;SDS011;23334;54.316;10.182;2022-12-29T06:42:22;2.63;;;2.53;;
37477;SDS011;23334;54.316;10.182;2022-12-29T06:44:47;2.80;;;2.70;;
37477;SDS011;23334;54.316;10.182;2022-12-29T06:47:13;3.57;;;3.27;;
37477;SDS011;23334;54.316;10.182;2022-12-29T06:49:38;3.27;;;3.07;;
37477;SDS011;23334;54.316;10.182;2022-12-29T06:52:04;3.20;;;3.00;;
37477;SDS011;23334;54.316;10.182;2022-12-29T06:54:30;2.93;;;2.73;;
37477;SDS011;23334;54.316;10.182;2022-12-29T06:56:57;3.67;;;3.47;;
37477;SDS011;23334;54.316;10.182;2022-12-29T06:59:23;3.50;;;3.20;;
37477;SDS011;23334;54.316;10.182;2022-12-29T07:01:50;3.30;;;3.10;;
37477;SDS011;23334;54.316;10.182;2022-12-29T07:04:15;2.90;;;2.80;;
37477;SDS011;23334;54.316;10.182;2022-12-29T07:06:41;3.37;;;3.17;;
37477;SDS011;23334;54.316;10.182;2022-12-29T07:09:07;3.00;;;2.80;;
37477;SDS011;23334;54.316;10.182;2022-12-29T07:11:33;3.60;;;3.13;;
37477;SDS011;23334;54.316;10.182;2022-12-29T07:13:59;2.93;;;2.73;;
37477;SDS011;23334;54.316;10.182;2022-12-29T07:16:25;2.93;;;2.73;;
37477;SDS011;23334;54.316;10.182;2022-12-29T07:18:50;3.33;;;3.10;;
37477;SDS011;23334;54.316;10.182;2022-12-29T07:21:16;3.17;;;2.93;;
37477;SDS011;23334;54.316;10.182;2022-12-29T07:23:42;8.57;;;2.90;;
37477;SDS011;23334;54.316;10.182;2022-12-29T07:26:08;3.40;;;3.10;;
37477;SDS011;23334;54.316;10.182;2022-12-29T07:28:37;3.50;;;2.80;;
37477;SDS011;23334;54.316;10.182;2022-12-29T07:31:03;2.63;;;2.53;;
37477;SDS011;23334;54.316;10.182;2022-12-29T07:33:29;2.37;;;2.10;;
37477;SDS011;23334;54.316;10.182;2022-12-29T07:35:56;2.00;;;1.90;;
37477;SDS011;23334;54.316;10.182;2022-12-29T07:38:22;2.17;;;2.07;;
37477;SDS011;23334;54.316;10.182;2022-12-29T07:40:47;2.70;;;2.17;;
37477;SDS011;23334;54.316;10.182;2022-12-29T07:43:14;2.27;;;2.17;;
37477;SDS011;23334;54.316;10.182;2022-12-29T07:45:39;2.37;;;2.20;;
37477;SDS011;23334;54.316;10.182;2022-12-29T07:48:05;3.30;;;2.17;;
37477;SDS011;23334;54.316;10.182;2022-12-29T07:50:32;2.00;;;1.90;;
37477;SDS011;23334;54.316;10.182;2022-12-29T07:52:58;7.00;;;2.17;;
37477;SDS011;23334;54.316;10.182;2022-12-29T07:55:24;2.73;;;1.70;;
37477;SDS011;23334;54.316;10.182;2022-12-29T07:57:49;2.67;;;1.80;;
37477;SDS011;23334;54.316;10.182;2022-12-29T08:00:18;1.90;;;1.80;;
37477;SDS011;23334;54.316;10.182;2022-12-29T08:02:44;2.03;;;1.50;;
37477;SDS011;23334;54.316;10.182;2022-12-29T08:05:09;1.40;;;1.30;;
37477;SDS011;23334;54.316;10.182;2022-12-29T08:07:35;1.60;;;1.50;;
37477;SDS011;23334;54.316;10.182;2022-12-29T08:10:00;1.50;;;1.37;;
37477;SDS011;23334;54.316;10.182;2022-12-29T08:12:26;1.20;;;1.10;;
37477;SDS011;23334;54.316;10.182;2022-12-29T08:14:52;1.70;;;1.47;;
37477;SDS011;23334;54.316;10.182;2022-12-29T08:17:17;6.97;;;1.23;;
37477;SDS011;23334;54.316;10.182;2022-12-29T08:19:43;1.47;;;1.13;;
37477;SDS011;23334;54.316;10.182;2022-12-29T08:22:09;1.93;;;1.13;;
37477;SDS011;23334;54.316;10.182;2022-12-29T08:24:34;2.93;;;1.87;;
37477;SDS011;23334;54.316;10.182;2022-12-29T08:27:00;1.27;;;1.13;;
37477;SDS011;23334;54.316;10.182;2022-12-29T08:29:26;1.53;;;1.07;;
37477;SDS011;23334;54.316;10.182;2022-12-29T08:31:51;2.40;;;1.13;;
37477;SDS011;23334;54.316;10.182;2022-12-29T08:34:17;0.93;;;0.80;;
37477;SDS011;23334;54.316;10.182;2022-12-29T08:36:42;2.00;;;1.37;;
37477;SDS011;23334;54.316;10.182;2022-12-29T08:39:08;2.73;;;1.37;;
37477;SDS011;23334;54.316;10.182;2022-12-29T08:41:34;1.97;;;0.90;;
37477;SDS011;23334;54.316;10.182;2022-12-29T08:44:17;5.40;;;0.90;;
37477;SDS011;23334;54.316;10.182;2022-12-29T08:46:42;2.30;;;1.27;;
37477;SDS011;23334;54.316;10.182;2022-12-29T08:49:08;2.60;;;1.37;;
37477;SDS011;23334;54.316;10.182;2022-12-29T08:51:33;1.30;;;1.00;;
37477;SDS011;23334;54.316;10.182;2022-12-29T08:53:59;1.57;;;1.17;;
37477;SDS011;23334;54.316;10.182;2022-12-29T08:56:25;3.60;;;1.07;;
37477;SDS011;23334;54.316;10.182;2022-12-29T08:58:51;4.17;;;1.30;;
37477;SDS011;23334;54.316;10.182;2022-12-29T09:01:18;3.23;;;0.87;;
37477;SDS011;23334;54.316;10.182;2022-12-29T09:03:43;2.30;;;0.83;;
37477;SDS011;23334;54.316;10.182;2022-12-29T09:06:09;6.00;;;1.00;;
37477;SDS011;23334;54.316;10.182;2022-12-29T09:08:35;1.90;;;1.00;;
37477;SDS011;23334;54.316;10.182;2022-12-29T09:11:07;2.00;;;1.13;;
37477;SDS011;23334;54.316;10.182;2022-12-29T09:13:44;2.20;;;1.27;;
37477;SDS011;23334;54.316;10.182;2022-12-29T09:16:10;5.53;;;1.20;;
37477;SDS011;23334;54.316;10.182;2022-12-29T09:18:36;4.30;;;1.90;;
37477;SDS011;23334;54.316;10.182;2022-12-29T09:21:03;2.60;;;1.10;;
37477;SDS011;23334;54.316;10.182;2022-12-29T09:23:31;1.43;;;1.17;;
37477;SDS011;23334;54.316;10.182;2022-12-29T09:25:57;2.57;;;1.00;;
37477;SDS011;23334;54.316;10.182;2022-12-29T09:28:23;2.67;;;1.20;;
37477;SDS011;23334;54.316;10.182;2022-12-29T09:30:49;3.10;;;1.20;;
37477;SDS011;23334;54.316;10.182;2022-12-29T09:33:15;3.90;;;1.00;;
37477;SDS011;23334;54.316;10.182;2022-12-29T09:35:42;2.20;;;0.90;;
37477;SDS011;23334;54.316;10.182;2022-12-29T09:38:08;5.43;;;0.90;;
37477;SDS011;23334;54.316;10.182;2022-12-29T09:40:34;6.83;;;1.07;;
37477;SDS011;23334;54.316;10.182;2022-12-29T09:43:04;2.27;;;0.80;;
37477;SDS011;23334;54.316;10.182;2022-12-29T09:45:42;2.70;;;1.20;;
37477;SDS011;23334;54.316;10.182;2022-12-29T09:48:17;8.20;;;1.00;;
37477;SDS011;23334;54.316;10.182;2022-12-29T09:50:48;3.33;;;0.80;;
37477;SDS011;23334;54.316;10.182;2022-12-29T09:58:57;4.03;;;1.10;;
37477;SDS011;23334;54.316;10.182;2022-12-29T10:01:33;15.53;;;1.50;;
37477;SDS011;23334;54.316;10.182;2022-12-29T10:04:13;0.90;;;0.80;;
37477;SDS011;23334;54.316;10.182;2022-12-29T10:06:51;5.37;;;0.93;;
37477;SDS011;23334;54.316;10.182;2022-12-29T10:12:21;5.20;;;1.50;;
37477;SDS011;23334;54.316;10.182;2022-12-29T10:17:39;4.47;;;1.00;;
37477;SDS011;23334;54.316;10.182;2022-12-29T10:22:57;3.53;;;1.13;;
37477;SDS011;23334;54.316;10.182;2022-12-29T10:25:45;5.17;;;1.10;;
37477;SDS011;23334;54.316;10.182;2022-12-29T10:28:21;13.00;;;1.27;;
37477;SDS011;23334;54.316;10.182;2022-12-29T10:30:48;7.43;;;1.00;;
37477;SDS011;23334;54.316;10.182;2022-12-29T10:33:17;5.03;;;1.80;;
37477;SDS011;23334;54.316;10.182;2022-12-29T10:35:46;5.67;;;0.93;;
37477;SDS011;23334;54.316;10.182;2022-12-29T10:38:35;6.83;;;1.27;;
37477;SDS011;23334;54.316;10.182;2022-12-29T10:41:18;4.57;;;1.10;;
37477;SDS011;23334;54.316;10.182;2022-12-29T10:43:53;4.97;;;1.20;;
37477;SDS011;23334;54.316;10.182;2022-12-29T10:46:23;2.67;;;0.80;;
37477;SDS011;23334;54.316;10.182;2022-12-29T10:48:57;6.70;;;1.70;;
37477;SDS011;23334;54.316;10.182;2022-12-29T10:51:42;5.70;;;1.07;;
37477;SDS011;23334;54.316;10.182;2022-12-29T10:56:49;5.83;;;0.83;;
37477;SDS011;23334;54.316;10.182;2022-12-29T10:59:29;6.47;;;1.13;;
37477;SDS011;23334;54.316;10.182;2022-12-29T11:04:43;1.07;;;0.83;;
37477;SDS011;23334;54.316;10.182;2022-12-29T11:07:17;1.77;;;0.80;;
37477;SDS011;23334;54.316;10.182;2022-12-29T11:09:44;5.57;;;1.37;;
37477;SDS011;23334;54.316;10.182;2022-12-29T11:12:26;4.40;;;0.90;;
37477;SDS011;23334;54.316;10.182;2022-12-29T11:17:42;4.40;;;1.10;;
37477;SDS011;23334;54.316;10.182;2022-12-29T11:22:58;4.33;;;0.90;;
37477;SDS011;23334;54.316;10.182;2022-12-29T11:25:24;4.30;;;1.07;;
37477;SDS011;23334;54.316;10.182;2022-12-29T11:27:57;1.70;;;0.70;;
37477;SDS011;23334;54.316;10.182;2022-12-29T11:30:27;3.00;;;0.80;;
37477;SDS011;23334;54.316;10.182;2022-12-29T11:32:55;6.63;;;1.10;;
37477;SDS011;23334;54.316;10.182;2022-12-29T11:35:39;4.43;;;1.10;;
37477;SDS011;23334;54.316;10.182;2022-12-29T11:38:11;5.63;;;1.10;;
37477;SDS011;23334;54.316;10.182;2022-12-29T11:40:50;6.03;;;1.07;;
37477;SDS011;23334;54.316;10.182;2022-12-29T11:43:31;3.43;;;1.17;;
37477;SDS011;23334;54.316;10.182;2022-12-29T11:45:59;7.20;;;0.97;;
37477;SDS011;23334;54.316;10.182;2022-12-29T11:48:29;4.40;;;1.50;;
37477;SDS011;23334;54.316;10.182;2022-12-29T11:50:58;6.27;;;1.10;;
37477;SDS011;23334;54.316;10.182;2022-12-29T11:53:26;7.70;;;1.63;;
37477;SDS011;23334;54.316;10.182;2022-12-29T11:55:58;9.73;;;1.30;;
37477;SDS011;23334;54.316;10.182;2022-12-29T11:58:31;8.40;;;1.37;;
37477;SDS011;23334;54.316;10.182;2022-12-29T12:01:03;3.63;;;1.00;;
37477;SDS011;23334;54.316;10.182;2022-12-29T12:04:03;5.93;;;1.90;;
37477;SDS011;23334;54.316;10.182;2022-12-29T12:06:33;5.23;;;1.47;;
37477;SDS011;23334;54.316;10.182;2022-12-29T12:09:10;6.17;;;1.40;;
37477;SDS011;23334;54.316;10.182;2022-12-29T12:11:43;6.50;;;1.07;;
37477;SDS011;23334;54.316;10.182;2022-12-29T12:14:18;4.40;;;1.27;;
37477;SDS011;23334;54.316;10.182;2022-12-29T12:16:55;4.70;;;1.20;;
37477;SDS011;23334;54.316;10.182;2022-12-29T12:22:10;5.50;;;1.20;;
37477;SDS011;23334;54.316;10.182;2022-12-29T12:27:18;3.37;;;1.37;;
37477;SDS011;23334;54.316;10.182;2022-12-29T12:32:24;4.37;;;1.63;;
37477;SDS011;23334;54.316;10.182;2022-12-29T12:35:11;3.90;;;1.13;;
37477;SDS011;23334;54.316;10.182;2022-12-29T12:37:43;2.10;;;1.17;;
37477;SDS011;23334;54.316;10.182;2022-12-29T12:42:54;4.63;;;1.17;;
37477;SDS011;23334;54.316;10.182;2022-12-29T12:51:47;9.00;;;1.33;;
37477;SDS011;23334;54.316;10.182;2022-12-29T13:00:47;2.23;;;1.13;;
37477;SDS011;23334;54.316;10.182;2022-12-29T13:03:52;6.90;;;1.87;;
37477;SDS011;23334;54.316;10.182;2022-12-29T13:06:33;1.53;;;1.20;;
37477;SDS011;23334;54.316;10.182;2022-12-29T13:09:34;8.30;;;1.53;;
37477;SDS011;23334;54.316;10.182;2022-12-29T13:12:13;7.80;;;1.50;;
37477;SDS011;23334;54.316;10.182;2022-12-29T13:17:25;3.60;;;1.07;;
37477;SDS011;23334;54.316;10.182;2022-12-29T13:25:18;4.37;;;1.03;;
37477;SDS011;23334;54.316;10.182;2022-12-29T13:28:12;2.77;;;1.30;;
37477;SDS011;23334;54.316;10.182;2022-12-29T13:36:44;3.87;;;1.17;;
37477;SDS011;23334;54.316;10.182;2022-12-29T13:39:23;2.23;;;0.87;;
37477;SDS011;23334;54.316;10.182;2022-12-29T13:44:20;4.60;;;1.20;;
37477;SDS011;23334;54.316;10.182;2022-12-29T13:46:49;8.10;;;1.40;;
37477;SDS011;23334;54.316;10.182;2022-12-29T13:49:19;1.73;;;1.13;;
37477;SDS011;23334;54.316;10.182;2022-12-29T13:51:47;7.97;;;1.40;;
37477;SDS011;23334;54.316;10.182;2022-12-29T13:54:30;3.13;;;1.00;;
37477;SDS011;23334;54.316;10.182;2022-12-29T13:59:43;3.30;;;1.40;;
37477;SDS011;23334;54.316;10.182;2022-12-29T14:02:32;3.40;;;1.00;;
37477;SDS011;23334;54.316;10.182;2022-12-29T14:07:46;6.73;;;1.30;;
37477;SDS011;23334;54.316;10.182;2022-12-29T14:10:33;7.37;;;1.20;;
37477;SDS011;23334;54.316;10.182;2022-12-29T14:13:09;6.90;;;1.67;;
37477;SDS011;23334;54.316;10.182;2022-12-29T14:15:38;4.80;;;1.50;;
37477;SDS011;23334;54.316;10.182;2022-12-29T14:18:19;8.00;;;2.00;;
37477;SDS011;23334;54.316;10.182;2022-12-29T14:23:43;4.10;;;1.00;;
37477;SDS011;23334;54.316;10.182;2022-12-29T14:26:18;5.63;;;1.10;;
37477;SDS011;23334;54.316;10.182;2022-12-29T14:28:53;4.67;;;1.50;;
37477;SDS011;23334;54.316;10.182;2022-12-29T14:36:35;3.93;;;1.33;;
37477;SDS011;23334;54.316;10.182;2022-12-29T14:39:01;7.07;;;1.97;;
37477;SDS011;23334;54.316;10.182;2022-12-29T14:41:40;8.63;;;1.43;;
37477;SDS011;23334;54.316;10.182;2022-12-29T14:44:16;3.93;;;1.87;;
37477;SDS011;23334;54.316;10.182;2022-12-29T14:46:45;8.87;;;1.77;;
37477;SDS011;23334;54.316;10.182;2022-12-29T14:49:18;11.97;;;1.83;;
37477;SDS011;23334;54.316;10.182;2022-12-29T14:51:47;5.77;;;1.37;;
37477;SDS011;23334;54.316;10.182;2022-12-29T14:56:58;8.10;;;1.40;;
37477;SDS011;23334;54.316;10.182;2022-12-29T14:59:25;3.67;;;1.40;;
37477;SDS011;23334;54.316;10.182;2022-12-29T15:01:52;8.93;;;1.33;;
37477;SDS011;23334;54.316;10.182;2022-12-29T15:04:21;8.90;;;1.90;;
37477;SDS011;23334;54.316;10.182;2022-12-29T15:06:49;12.30;;;1.90;;
37477;SDS011;23334;54.316;10.182;2022-12-29T15:11:52;7.30;;;2.10;;
37477;SDS011;23334;54.316;10.182;2022-12-29T15:17:01;8.53;;;1.33;;
37477;SDS011;23334;54.316;10.182;2022-12-29T15:19:33;5.80;;;1.63;;
37477;SDS011;23334;54.316;10.182;2022-12-29T15:21:58;4.27;;;1.37;;
37477;SDS011;23334;54.316;10.182;2022-12-29T15:24:25;8.30;;;1.90;;
37477;SDS011;23334;54.316;10.182;2022-12-29T15:26:51;9.50;;;2.30;;
37477;SDS011;23334;54.316;10.182;2022-12-29T15:29:29;5.83;;;1.13;;
37477;SDS011;23334;54.316;10.182;2022-12-29T15:32:10;4.33;;;1.53;;
37477;SDS011;23334;54.316;10.182;2022-12-29T15:34:40;5.60;;;1.30;;
37477;SDS011;23334;54.316;10.182;2022-12-29T15:37:17;8.87;;;1.47;;
37477;SDS011;23334;54.316;10.182;2022-12-29T15:39:47;6.50;;;1.70;;
37477;SDS011;23334;54.316;10.182;2022-12-29T15:45:11;6.40;;;1.37;;
37477;SDS011;23334;54.316;10.182;2022-12-29T15:47:38;7.90;;;1.93;;
37477;SDS011;23334;54.316;10.182;2022-12-29T15:50:07;6.10;;;1.43;;
37477;SDS011;23334;54.316;10.182;2022-12-29T15:52:40;3.80;;;1.10;;
37477;SDS011;23334;54.316;10.182;2022-12-29T15:55:06;5.27;;;1.80;;
37477;SDS011;23334;54.316;10.182;2022-12-29T15:57:58;8.53;;;2.03;;
37477;SDS011;23334;54.316;10.182;2022-12-29T16:00:29;6.43;;;1.57;;
37477;SDS011;23334;54.316;10.182;2022-12-29T16:02:58;6.40;;;1.90;;
37477;SDS011;23334;54.316;10.182;2022-12-29T16:05:36;15.57;;;2.17;;
37477;SDS011;23334;54.316;10.182;2022-12-29T16:08:04;3.07;;;1.43;;
37477;SDS011;23334;54.316;10.182;2022-12-29T16:10:57;9.13;;;1.40;;
37477;SDS011;23334;54.316;10.182;2022-12-29T16:13:26;13.53;;;1.83;;
37477;SDS011;23334;54.316;10.182;2022-12-29T16:16:07;4.17;;;1.23;;
37477;SDS011;23334;54.316;10.182;2022-12-29T16:18:38;3.43;;;1.43;;
37477;SDS011;23334;54.316;10.182;2022-12-29T16:21:05;11.63;;;1.60;;
37477;SDS011;23334;54.316;10.182;2022-12-29T16:23:40;4.90;;;1.50;;
37477;SDS011;23334;54.316;10.182;2022-12-29T16:26:14;7.93;;;1.20;;
37477;SDS011;23334;54.316;10.182;2022-12-29T16:28:42;4.83;;;1.70;;
37477;SDS011;23334;54.316;10.182;2022-12-29T16:31:18;7.53;;;1.57;;
37477;SDS011;23334;54.316;10.182;2022-12-29T16:33:51;2.87;;;1.80;;
37477;SDS011;23334;54.316;10.182;2022-12-29T16:36:22;9.00;;;1.30;;
37477;SDS011;23334;54.316;10.182;2022-12-29T16:39:15;8.37;;;1.97;;
37477;SDS011;23334;54.316;10.182;2022-12-29T16:41:41;4.83;;;1.10;;
37477;SDS011;23334;54.316;10.182;2022-12-29T16:49:43;8.87;;;1.70;;
37477;SDS011;23334;54.316;10.182;2022-12-29T16:52:22;7.57;;;1.30;;
37477;SDS011;23334;54.316;10.182;2022-12-29T16:54:53;3.63;;;1.30;;
37477;SDS011;23334;54.316;10.182;2022-12-29T16:57:31;4.90;;;1.20;;
37477;SDS011;23334;54.316;10.182;2022-12-29T17:00:03;7.87;;;1.73;;
37477;SDS011;23334;54.316;10.182;2022-12-29T17:02:31;11.90;;;1.90;;
37477;SDS011;23334;54.316;10.182;2022-12-29T17:04:59;2.70;;;1.23;;
37477;SDS011;23334;54.316;10.182;2022-12-29T17:07:25;8.10;;;1.70;;